Terminal Aerodrome Forecast
Issued by NWS Norman, OK

Home | Current Version | Previous Version | Text Only | Print | Product List | Glossary On
Versions: 1 2 3 4 5 6 7 8 9 10 11 12 13 14 15 16 17 18 19 20 21 22 23 24 25 26 27 28 29 30 31 32 33
000
FTUS44 KOUN 172320
TAFOKC
TAF
KOKC 172320Z 1800/1824 21016G22KT P6SM BKN250
     FM181000 24014G22KT P6SM SCT040 BKN250
     FM181200 33026G35KT P6SM BKN250
     FM181600 35030G40KT P6SM BKN250
     FM182200 35020G28KT P6SM SCT250=

USA.gov is the U.S. government's official web portal to all federal, state and local government web resources and services.